Time;durP1;ratioP1;P1;durP2;ratioP2;P2;SDS_P1;SDS_P2;PMS_P1;PMS_P2;Temp;Humidity;BMP_temperature;BMP_pressure;BME280_temperature;BME280_humidity;BME280_pressure;Samples;Min_cycle;Max_cycle;Signal;HPM_P1;HPM_P2
2023/10/13 00:01:48;;;;;;;9.57;3.03;;;;;;;;;;5074634;28;20440;-75
2023/10/13 00:04:15;;;;;;;4.00;2.70;;;;;;;;;;5074582;28;20489;-75
2023/10/13 00:06:45;;;;;;;7.00;3.10;;;;;;;;;;5074323;28;20847;-75
2023/10/13 00:09:14;;;;;;;9.97;3.37;;;;;;;;;;5074076;28;20478;-75
2023/10/13 00:11:44;;;;;;;4.73;2.73;;;;;;;;;;5074466;28;20493;-75
2023/10/13 00:14:15;;;;;;;7.80;2.93;;;;;;;;;;5073976;28;20496;-76
2023/10/13 00:16:43;;;;;;;9.23;3.37;;;;;;;;;;5073997;28;20939;-76
2023/10/13 00:19:13;;;;;;;9.70;3.60;;;;;;;;;;5074372;28;20437;-75
2023/10/13 00:21:42;;;;;;;6.47;3.83;;;;;;;;;;5078004;28;20427;-75
2023/10/13 00:24:13;;;;;;;8.07;3.73;;;;;;;;;;5094081;28;20439;-76
2023/10/13 00:26:43;;;;;;;12.30;4.50;;;;;;;;;;5089491;28;20429;-75
2023/10/13 00:29:16;;;;;;;8.13;4.03;;;;;;;;;;5073667;28;20456;-76
2023/10/13 00:31:44;;;;;;;6.57;3.27;;;;;;;;;;5073761;28;20425;-75
2023/10/13 00:34:19;;;;;;;9.00;3.90;;;;;;;;;;5073712;28;20476;-75
2023/10/13 00:36:48;;;;;;;8.70;3.17;;;;;;;;;;5073644;28;20523;-75
2023/10/13 00:39:16;;;;;;;9.60;4.33;;;;;;;;;;5073682;28;20915;-75
2023/10/13 00:41:57;;;;;;;5.80;2.80;;;;;;;;;;5073534;28;20463;-75
2023/10/13 00:44:32;;;;;;;6.57;3.20;;;;;;;;;;5073883;28;20424;-75
2023/10/13 00:46:58;;;;;;;6.80;2.87;;;;;;;;;;5073396;28;20433;-76
2023/10/13 00:49:30;;;;;;;4.40;2.83;;;;;;;;;;5073824;28;20433;-75
2023/10/13 00:51:57;;;;;;;8.20;3.07;;;;;;;;;;5073590;28;20428;-75
2023/10/13 00:54:27;;;;;;;8.80;3.60;;;;;;;;;;5073908;28;20456;-76
2023/10/13 00:57:04;;;;;;;6.47;3.17;;;;;;;;;;5073812;28;20848;-75
2023/10/13 00:59:36;;;;;;;7.67;3.47;;;;;;;;;;5073959;28;20792;-75
2023/10/13 01:02:37;;;;;;;4.67;2.77;;;;;;;;;;5073853;28;20420;-75
2023/10/13 01:04:54;;;;;;;5.60;2.80;;;;;;;;;;5073130;28;20425;-75
2023/10/13 01:07:22;;;;;;;5.40;3.00;;;;;;;;;;5083206;28;20447;-76
2023/10/13 01:09:49;;;;;;;9.60;5.10;;;;;;;;;;5093260;28;20520;-75
2023/10/13 01:12:15;;;;;;;6.03;3.00;;;;;;;;;;5093885;28;20439;-75
2023/10/13 01:14:44;;;;;;;6.40;3.27;;;;;;;;;;5093760;28;20818;-76
2023/10/13 01:17:10;;;;;;;6.50;3.27;;;;;;;;;;5079289;28;20498;-75
2023/10/13 01:19:42;;;;;;;6.70;2.83;;;;;;;;;;5073372;28;20852;-75
2023/10/13 01:22:10;;;;;;;8.00;2.70;;;;;;;;;;5073233;28;20420;-76
2023/10/13 01:24:39;;;;;;;8.83;3.10;;;;;;;;;;5073533;28;20478;-75
2023/10/13 01:27:14;;;;;;;6.33;2.93;;;;;;;;;;5089048;28;20848;-75
2023/10/13 01:29:47;;;;;;;4.03;2.40;;;;;;;;;;5093683;28;20427;-76
2023/10/13 01:32:13;;;;;;;5.87;3.43;;;;;;;;;;5093347;28;20755;-75
2023/10/13 01:34:45;;;;;;;7.93;3.90;;;;;;;;;;5093239;28;20988;-75
2023/10/13 01:37:12;;;;;;;4.67;3.40;;;;;;;;;;5093311;28;20433;-76
2023/10/13 01:39:40;;;;;;;5.83;3.10;;;;;;;;;;5093536;28;20432;-76
2023/10/13 01:42:07;;;;;;;7.20;3.17;;;;;;;;;;5093539;28;20448;-75
2023/10/13 01:44:35;;;;;;;7.57;3.57;;;;;;;;;;5093419;28;20840;-75
2023/10/13 01:47:06;;;;;;;10.30;3.60;;;;;;;;;;5078911;28;20478;-75
2023/10/13 01:49:41;;;;;;;5.07;3.57;;;;;;;;;;5073337;28;20820;-75
2023/10/13 01:52:11;;;;;;;9.00;3.70;;;;;;;;;;5073924;28;20424;-75
2023/10/13 01:54:40;;;;;;;6.33;3.20;;;;;;;;;;5082022;28;20554;-75
2023/10/13 01:57:08;;;;;;;8.60;3.20;;;;;;;;;;5082083;28;20452;-76
2023/10/13 01:59:43;;;;;;;6.23;3.73;;;;;;;;;;5077067;28;20786;-76
2023/10/13 02:02:12;;;;;;;4.47;2.77;;;;;;;;;;5077038;28;20428;-75
2023/10/13 02:04:42;;;;;;;9.53;3.77;;;;;;;;;;5076885;28;20448;-76
2023/10/13 02:07:08;;;;;;;5.50;3.80;;;;;;;;;;5090758;28;20440;-75
2023/10/13 02:09:37;;;;;;;6.80;3.60;;;;;;;;;;5096653;28;20467;-75
2023/10/13 02:12:03;;;;;;;10.63;3.30;;;;;;;;;;5078314;28;20448;-75
2023/10/13 02:14:33;;;;;;;6.50;4.20;;;;;;;;;;5076607;28;20483;-75
2023/10/13 02:17:12;;;;;;;4.87;3.23;;;;;;;;;;5089382;28;20492;-75
2023/10/13 02:19:43;;;;;;;7.43;3.50;;;;;;;;;;5097008;28;20786;-76
2023/10/13 02:22:10;;;;;;;5.47;3.17;;;;;;;;;;5096901;28;20453;-75
2023/10/13 02:24:39;;;;;;;9.63;3.70;;;;;;;;;;5096790;28;20452;-75
2023/10/13 02:27:13;;;;;;;6.10;2.50;;;;;;;;;;5082771;28;20518;-75
2023/10/13 02:29:41;;;;;;;6.97;3.90;;;;;;;;;;5076373;28;20520;-76
2023/10/13 02:32:18;;;;;;;6.73;3.00;;;;;;;;;;5077079;28;20437;-75
2023/10/13 02:34:45;;;;;;;6.53;2.80;;;;;;;;;;5076002;28;20502;-75
2023/10/13 02:37:12;;;;;;;7.33;3.37;;;;;;;;;;5076301;28;20433;-75
2023/10/13 02:39:41;;;;;;;9.50;3.03;;;;;;;;;;5075969;28;20935;-75
2023/10/13 02:42:07;;;;;;;8.87;3.90;;;;;;;;;;5091451;28;20443;-76
2023/10/13 02:44:36;;;;;;;6.53;2.90;;;;;;;;;;5096400;28;20439;-75
2023/10/13 02:47:05;;;;;;;7.00;3.30;;;;;;;;;;5096327;28;20466;-75
2023/10/13 02:49:37;;;;;;;5.47;3.23;;;;;;;;;;5096342;28;20478;-76
2023/10/13 02:52:07;;;;;;;4.57;2.50;;;;;;;;;;5081395;28;20436;-75
2023/10/13 02:54:39;;;;;;;8.67;3.27;;;;;;;;;;5075598;28;20468;-75
2023/10/13 02:57:06;;;;;;;4.90;2.93;;;;;;;;;;5076096;28;20439;-75
2023/10/13 02:59:40;;;;;;;6.43;3.03;;;;;;;;;;5075925;28;20806;-77
2023/10/13 03:02:17;;;;;;;6.30;3.17;;;;;;;;;;5090005;28;20439;-76
2023/10/13 03:04:45;;;;;;;6.57;2.83;;;;;;;;;;5095749;28;20442;-75
2023/10/13 03:07:15;;;;;;;17.40;3.90;;;;;;;;;;5096123;28;20508;-75
2023/10/13 03:09:50;;;;;;;8.77;3.23;;;;;;;;;;5095785;28;20968;-75
2023/10/13 03:12:17;;;;;;;8.03;2.70;;;;;;;;;;5079191;28;20616;-76
2023/10/13 03:14:47;;;;;;;6.17;4.13;;;;;;;;;;5055531;28;20865;-76
2023/10/13 03:17:18;;;;;;;9.83;3.40;;;;;;;;;;5055286;28;20469;-76
2023/10/13 03:19:49;;;;;;;8.83;3.70;;;;;;;;;;5055531;28;20461;-75
2023/10/13 03:22:17;;;;;;;10.47;3.60;;;;;;;;;;5086855;28;20436;-76
2023/10/13 03:24:46;;;;;;;9.53;3.20;;;;;;;;;;5095452;28;20448;-75
2023/10/13 03:27:16;;;;;;;7.60;3.30;;;;;;;;;;5095472;28;20439;-76
2023/10/13 03:29:44;;;;;;;7.63;3.47;;;;;;;;;;5095678;28;20759;-75
2023/10/13 03:32:15;;;;;;;8.23;4.10;;;;;;;;;;5080602;28;20437;-75
2023/10/13 03:35:11;;;;;;;9.27;4.23;;;;;;;;;;5075378;28;20658;-75
2023/10/13 03:37:38;;;;;;;14.30;3.03;;;;;;;;;;5075259;28;20755;-75
2023/10/13 03:40:15;;;;;;;8.63;2.43;;;;;;;;;;5074811;28;20444;-76
2023/10/13 03:42:43;;;;;;;6.07;3.00;;;;;;;;;;5093219;28;20428;-76
2023/10/13 03:45:10;;;;;;;8.97;2.83;;;;;;;;;;5095221;28;20439;-75
2023/10/13 03:47:38;;;;;;;7.80;3.07;;;;;;;;;;5094937;28;21182;-75
2023/10/13 03:50:16;;;;;;;8.83;2.77;;;;;;;;;;5095268;28;20474;-75
2023/10/13 03:52:44;;;;;;;11.43;3.83;;;;;;;;;;5076170;28;20782;-75
2023/10/13 03:55:17;;;;;;;7.00;3.23;;;;;;;;;;5074755;28;20538;-76
2023/10/13 03:57:50;;;;;;;6.97;3.50;;;;;;;;;;5074927;28;20425;-75
2023/10/13 04:00:24;;;;;;;5.50;3.30;;;;;;;;;;5074703;28;20431;-76
2023/10/13 04:03:06;;;;;;;11.17;3.97;;;;;;;;;;5093913;28;20481;-75
2023/10/13 04:05:44;;;;;;;6.23;3.17;;;;;;;;;;5095019;28;20424;-75
2023/10/13 04:16:51;;;;;;;10.33;3.90;;;;;;;;;;5073336;28;20467;-75
2023/10/13 04:19:26;;;;;;;7.73;3.03;;;;;;;;;;5074018;28;20439;-75
2023/10/13 04:22:14;;;;;;;13.40;3.80;;;;;;;;;;5084997;28;20439;-76
2023/10/13 04:27:44;;;;;;;5.57;3.07;;;;;;;;;;5036596;28;20423;-76
2023/10/13 04:30:11;;;;;;;6.27;3.77;;;;;;;;;;5093987;28;20447;-76
2023/10/13 04:32:47;;;;;;;5.40;3.20;;;;;;;;;;5077082;28;20437;-75
2023/10/13 04:35:18;;;;;;;7.43;4.30;;;;;;;;;;5073738;28;20467;-75
2023/10/13 04:37:58;;;;;;;5.37;3.00;;;;;;;;;;5073764;28;20931;-75
2023/10/13 04:40:24;;;;;;;11.63;3.45;;;;;;;;;;5073668;28;20460;-76
2023/10/13 04:42:57;;;;;;;6.50;2.90;;;;;;;;;;5055228;28;20195;-75
2023/10/13 04:45:46;;;;;;;7.80;3.75;;;;;;;;;;5071548;28;20523;-76
2023/10/13 04:48:17;;;;;;;9.20;3.73;;;;;;;;;;5070118;28;20244;-76
2023/10/13 04:50:45;;;;;;;7.40;3.83;;;;;;;;;;5071122;28;20428;-75
2023/10/13 04:59:35;;;;;;;9.93;3.85;;;;;;;;;;5150271;27;21039;-76
2023/10/13 05:52:18;;;;;;;7.80;2.70;;;;;;;;;;5081680;28;20324;-77
2023/10/13 06:30:34;;;;;;;16.87;4.10;;;;;;;;;;5087587;28;20454;-77
2023/10/13 06:33:04;;;;;;;6.73;3.03;;;;;;;;;;5088170;28;20524;-78
2023/10/13 06:35:34;;;;;;;7.83;3.80;;;;;;;;;;5087854;28;20444;-78
2023/10/13 06:38:03;;;;;;;11.83;4.10;;;;;;;;;;5083646;28;20436;-78
2023/10/13 06:40:34;;;;;;;6.63;3.40;;;;;;;;;;5087553;28;20444;-77
2023/10/13 06:43:16;;;;;;;8.33;3.40;;;;;;;;;;5087530;28;20539;-79
2023/10/13 06:45:50;;;;;;;6.00;2.93;;;;;;;;;;5084276;28;20435;-78
2023/10/13 06:48:19;;;;;;;11.33;3.37;;;;;;;;;;5079978;28;20506;-77
2023/10/13 06:50:55;;;;;;;10.17;3.23;;;;;;;;;;5089908;28;20432;-77
2023/10/13 06:53:24;;;;;;;9.77;3.67;;;;;;;;;;5089799;28;20420;-75
2023/10/13 06:55:58;;;;;;;7.17;2.80;;;;;;;;;;5089508;28;20995;-75
2023/10/13 06:58:26;;;;;;;8.37;3.10;;;;;;;;;;5088582;28;20478;-75
2023/10/13 07:00:58;;;;;;;8.03;3.10;;;;;;;;;;5075759;28;20843;-75
2023/10/13 07:03:26;;;;;;;7.50;2.90;;;;;;;;;;5076237;28;20454;-75
2023/10/13 07:05:53;;;;;;;5.40;2.70;;;;;;;;;;5076131;28;20849;-74
2023/10/13 07:08:23;;;;;;;9.50;3.67;;;;;;;;;;5075639;28;20518;-75
2023/10/13 07:11:01;;;;;;;10.10;2.80;;;;;;;;;;5076006;28;20834;-75
2023/10/13 07:13:28;;;;;;;5.97;2.53;;;;;;;;;;5075973;28;20439;-76
2023/10/13 07:16:01;;;;;;;8.30;4.80;;;;;;;;;;5075756;28;20436;-75
2023/10/13 07:18:35;;;;;;;11.50;3.03;;;;;;;;;;5075783;28;20424;-75
2023/10/13 07:21:09;;;;;;;6.07;2.20;;;;;;;;;;5075496;28;20474;-75
2023/10/13 07:23:38;;;;;;;7.33;2.53;;;;;;;;;;5075459;28;20511;-75
2023/10/13 07:26:08;;;;;;;5.63;2.73;;;;;;;;;;5075687;28;20429;-75
2023/10/13 07:28:43;;;;;;;12.83;3.20;;;;;;;;;;5075575;28;20958;-75
2023/10/13 07:31:12;;;;;;;6.37;3.03;;;;;;;;;;5075529;28;20840;-75
2023/10/13 07:33:41;;;;;;;10.60;2.87;;;;;;;;;;5075305;28;20994;-75
2023/10/13 07:36:17;;;;;;;10.43;2.47;;;;;;;;;;5075166;28;20518;-75
2023/10/13 07:38:48;;;;;;;8.83;3.13;;;;;;;;;;5075197;28;20506;-75
2023/10/13 07:41:17;;;;;;;6.03;2.87;;;;;;;;;;5075643;28;20524;-75
2023/10/13 07:43:46;;;;;;;9.33;3.97;;;;;;;;;;5075056;28;20486;-75
2023/10/13 07:46:13;;;;;;;12.00;3.17;;;;;;;;;;5075236;28;20431;-75
2023/10/13 07:48:45;;;;;;;5.33;2.30;;;;;;;;;;5075148;28;20995;-75
2023/10/13 07:51:15;;;;;;;7.80;2.87;;;;;;;;;;5074936;28;20459;-75
2023/10/13 07:53:43;;;;;;;6.07;2.57;;;;;;;;;;5075420;28;20420;-75
2023/10/13 07:56:11;;;;;;;6.40;2.30;;;;;;;;;;5075164;28;20440;-75
2023/10/13 07:58:52;;;;;;;7.33;3.03;;;;;;;;;;5074881;28;20491;-76
2023/10/13 08:01:19;;;;;;;13.73;3.00;;;;;;;;;;5074984;28;20424;-75
2023/10/13 08:03:47;;;;;;;7.03;2.70;;;;;;;;;;5074570;28;20432;-75
2023/10/13 08:06:21;;;;;;;7.70;2.87;;;;;;;;;;5075013;28;20432;-75
2023/10/13 08:08:53;;;;;;;5.97;2.90;;;;;;;;;;5074565;28;20868;-75
2023/10/13 08:11:30;;;;;;;5.53;2.70;;;;;;;;;;5074014;28;20416;-75
2023/10/13 08:14:10;;;;;;;5.53;2.67;;;;;;;;;;5074380;28;20478;-75
2023/10/13 08:16:52;;;;;;;13.63;2.87;;;;;;;;;;5074685;28;20424;-76
2023/10/13 08:19:20;;;;;;;6.40;2.23;;;;;;;;;;5074638;28;20899;-75
2023/10/13 08:21:51;;;;;;;12.90;2.80;;;;;;;;;;5074200;28;21005;-75
2023/10/13 08:24:25;;;;;;;8.23;2.30;;;;;;;;;;5074546;28;20448;-75
2023/10/13 08:26:57;;;;;;;6.80;2.83;;;;;;;;;;5074019;28;20910;-75
2023/10/13 08:32:19;;;;;;;8.63;3.20;;;;;;;;;;5074173;28;20403;-75
2023/10/13 08:35:09;;;;;;;7.33;3.00;;;;;;;;;;5074296;28;20416;-80
2023/10/13 08:37:46;;;;;;;6.70;2.27;;;;;;;;;;5074543;28;20424;-75
2023/10/13 08:43:12;;;;;;;10.97;3.53;;;;;;;;;;5073699;28;20420;-76
2023/10/13 08:45:59;;;;;;;9.23;3.00;;;;;;;;;;5073788;28;20944;-75
2023/10/13 08:48:37;;;;;;;7.00;3.27;;;;;;;;;;5073605;28;20479;-75
2023/10/13 08:51:20;;;;;;;5.60;2.70;;;;;;;;;;5074102;28;20455;-75
2023/10/13 08:53:52;;;;;;;9.00;3.17;;;;;;;;;;5073686;28;20439;-75
2023/10/13 08:56:32;;;;;;;8.03;3.07;;;;;;;;;;5073915;28;20429;-75
2023/10/13 08:59:09;;;;;;;5.23;2.50;;;;;;;;;;5073587;28;20570;-76
2023/10/13 09:01:45;;;;;;;8.53;2.80;;;;;;;;;;5073488;28;20910;-75
2023/10/13 09:04:22;;;;;;;9.00;3.10;;;;;;;;;;5073474;28;20428;-75
2023/10/13 09:09:58;;;;;;;5.40;2.40;;;;;;;;;;5067021;28;20536;-76
2023/10/13 09:12:25;;;;;;;5.53;2.40;;;;;;;;;;5073151;28;20431;-75
2023/10/13 09:14:56;;;;;;;4.70;2.40;;;;;;;;;;5072920;28;20508;-76
2023/10/13 09:17:34;;;;;;;7.90;2.83;;;;;;;;;;5073554;28;20420;-76
2023/10/13 09:20:23;;;;;;;6.37;2.50;;;;;;;;;;5072943;28;20463;-75
2023/10/13 09:23:07;;;;;;;3.60;2.00;;;;;;;;;;5073362;28;20420;-75
2023/10/13 09:25:35;;;;;;;7.53;3.13;;;;;;;;;;5073018;28;20424;-75
2023/10/13 09:28:03;;;;;;;5.70;2.43;;;;;;;;;;5073126;28;20432;-75
2023/10/13 09:30:31;;;;;;;10.00;2.80;;;;;;;;;;5072845;28;20531;-75
2023/10/13 09:33:04;;;;;;;9.40;2.83;;;;;;;;;;5072910;28;20440;-76
2023/10/13 09:35:33;;;;;;;4.17;2.53;;;;;;;;;;5073221;28;20428;-76
2023/10/13 09:38:02;;;;;;;4.20;2.93;;;;;;;;;;5072541;28;20479;-76
2023/10/13 09:40:34;;;;;;;6.70;2.93;;;;;;;;;;5073050;28;20440;-76
2023/10/13 09:43:07;;;;;;;5.80;2.20;;;;;;;;;;5072878;28;20508;-76
2023/10/13 09:45:39;;;;;;;7.40;2.93;;;;;;;;;;5072995;28;20448;-76
2023/10/13 09:48:16;;;;;;;6.40;3.53;;;;;;;;;;5072774;28;20984;-76
2023/10/13 09:50:44;;;;;;;6.07;2.70;;;;;;;;;;5073136;28;20420;-76
2023/10/13 09:53:14;;;;;;;5.33;3.07;;;;;;;;;;5072898;28;20436;-76
2023/10/13 09:55:44;;;;;;;4.80;2.60;;;;;;;;;;5072682;28;20948;-76
2023/10/13 09:58:47;;;;;;;5.73;2.57;;;;;;;;;;5072160;28;20600;-76
2023/10/13 10:01:21;;;;;;;7.20;3.30;;;;;;;;;;5057344;28;20810;-77
2023/10/13 10:04:07;;;;;;;4.90;2.43;;;;;;;;;;5071250;28;20428;-77
2023/10/13 10:06:44;;;;;;;7.80;2.37;;;;;;;;;;5072803;28;20451;-76
2023/10/13 10:09:11;;;;;;;6.50;2.30;;;;;;;;;;5070778;28;20447;-77
2023/10/13 10:11:50;;;;;;;6.57;2.20;;;;;;;;;;5070514;28;20439;-76
2023/10/13 10:14:20;;;;;;;5.93;2.47;;;;;;;;;;5072756;28;20864;-76
2023/10/13 10:16:59;;;;;;;6.40;2.63;;;;;;;;;;5072674;28;20467;-76
2023/10/13 10:19:28;;;;;;;6.83;3.10;;;;;;;;;;5072820;28;20470;-76
2023/10/13 10:22:10;;;;;;;9.40;2.53;;;;;;;;;;5072739;28;20925;-77
2023/10/13 10:24:38;;;;;;;5.33;2.90;;;;;;;;;;5072994;28;20663;-75
2023/10/13 10:27:07;;;;;;;4.40;2.70;;;;;;;;;;5072747;28;20431;-77
2023/10/13 10:29:34;;;;;;;5.03;2.10;;;;;;;;;;5072576;28;20443;-76
2023/10/13 10:32:06;;;;;;;6.90;2.30;;;;;;;;;;5072283;28;20463;-78
2023/10/13 10:34:38;;;;;;;5.50;2.37;;;;;;;;;;5073997;28;20768;-76
2023/10/13 10:37:09;;;;;;;5.90;2.33;;;;;;;;;;5076178;28;20451;-76
2023/10/13 10:39:44;;;;;;;4.60;2.30;;;;;;;;;;5076141;28;20520;-76
2023/10/13 10:42:17;;;;;;;5.37;2.30;;;;;;;;;;5075582;28;20453;-76
2023/10/13 10:44:47;;;;;;;11.70;2.93;;;;;;;;;;5076273;28;20761;-76
2023/10/13 10:47:19;;;;;;;6.60;2.73;;;;;;;;;;5075896;28;20973;-76
2023/10/13 10:49:48;;;;;;;6.40;2.63;;;;;;;;;;5075650;28;20419;-76
2023/10/13 10:52:23;;;;;;;6.37;2.40;;;;;;;;;;5075699;28;20439;-76
2023/10/13 10:55:02;;;;;;;7.10;2.80;;;;;;;;;;5075398;28;20516;-76
2023/10/13 10:57:36;;;;;;;4.10;2.37;;;;;;;;;;5075480;28;20447;-76
2023/10/13 11:00:14;;;;;;;5.40;2.20;;;;;;;;;;5075597;28;20458;-75
2023/10/13 11:02:44;;;;;;;6.83;2.23;;;;;;;;;;5075750;28;20781;-74
2023/10/13 11:05:19;;;;;;;4.80;2.63;;;;;;;;;;5075409;28;20489;-74
2023/10/13 11:07:50;;;;;;;6.73;2.63;;;;;;;;;;5074832;28;20466;-76
2023/10/13 11:10:26;;;;;;;4.17;2.00;;;;;;;;;;5075513;28;20439;-74
2023/10/13 11:13:11;;;;;;;4.87;2.00;;;;;;;;;;5075358;28;20965;-75
2023/10/13 11:15:44;;;;;;;4.10;2.30;;;;;;;;;;5075343;28;20799;-75
2023/10/13 11:18:20;;;;;;;7.43;2.20;;;;;;;;;;5075326;28;20960;-75
2023/10/13 11:20:53;;;;;;;6.87;2.70;;;;;;;;;;5075504;28;20416;-74
2023/10/13 11:23:25;;;;;;;5.73;2.30;;;;;;;;;;5075793;28;20446;-75
2023/10/13 11:25:59;;;;;;;5.73;2.70;;;;;;;;;;5075199;28;20432;-74
2023/10/13 11:28:28;;;;;;;6.10;2.20;;;;;;;;;;5075549;28;20481;-74
2023/10/13 11:30:58;;;;;;;5.03;2.47;;;;;;;;;;5074827;28;20492;-75
2023/10/13 11:33:28;;;;;;;6.23;2.40;;;;;;;;;;5074741;28;20933;-74
2023/10/13 11:36:17;;;;;;;7.30;2.73;;;;;;;;;;5075249;28;21015;-76
2023/10/13 11:38:49;;;;;;;5.57;2.43;;;;;;;;;;5073990;28;20470;-74
2023/10/13 11:41:21;;;;;;;4.60;2.27;;;;;;;;;;5074923;28;20423;-74
2023/10/13 11:49:18;;;;;;;6.00;2.30;;;;;;;;;;5063912;28;20426;-76
2023/10/13 11:51:48;;;;;;;8.37;2.60;;;;;;;;;;5074151;28;20851;-74
2023/10/13 11:54:15;;;;;;;6.10;2.50;;;;;;;;;;5074033;28;20435;-74
2023/10/13 11:56:42;;;;;;;10.13;2.80;;;;;;;;;;5062304;28;20464;-74
2023/10/13 11:59:16;;;;;;;6.40;2.53;;;;;;;;;;5054489;28;20472;-75
2023/10/13 12:04:34;;;;;;;6.17;2.50;;;;;;;;;;5054434;28;20496;-74
2023/10/13 12:07:17;;;;;;;5.70;2.70;;;;;;;;;;5054709;28;20421;-74
2023/10/13 12:10:02;;;;;;;7.13;2.80;;;;;;;;;;5054589;28;20468;-74
2023/10/13 12:12:43;;;;;;;5.00;2.83;;;;;;;;;;5054510;28;20436;-74
2023/10/13 12:15:14;;;;;;;5.40;2.80;;;;;;;;;;5054716;28;20431;-74
2023/10/13 12:17:44;;;;;;;4.70;2.47;;;;;;;;;;5054830;28;20420;-75
2023/10/13 12:20:18;;;;;;;5.13;2.03;;;;;;;;;;5054813;28;20477;-74
2023/10/13 12:22:55;;;;;;;11.63;2.63;;;;;;;;;;5054780;28;20503;-74
2023/10/13 12:25:44;;;;;;;11.97;3.53;;;;;;;;;;5054351;28;20421;-75
2023/10/13 12:28:18;;;;;;;8.20;2.70;;;;;;;;;;5054184;28;20467;-74
2023/10/13 12:30:52;;;;;;;7.60;2.50;;;;;;;;;;5054545;28;20427;-74
2023/10/13 12:33:26;;;;;;;4.40;2.40;;;;;;;;;;5054496;28;20421;-74
2023/10/13 12:36:27;;;;;;;5.93;2.33;;;;;;;;;;5054443;28;20475;-74
2023/10/13 12:50:26;;;;;;;5.63;2.53;;;;;;;;;;5053982;28;20443;-74
2023/10/13 12:52:53;;;;;;;5.53;2.60;;;;;;;;;;5053715;28;20451;-74
2023/10/13 12:55:24;;;;;;;7.37;2.67;;;;;;;;;;5053598;28;20971;-74
2023/10/13 12:57:52;;;;;;;4.10;2.40;;;;;;;;;;5053161;28;20510;-74
2023/10/13 13:00:23;;;;;;;6.83;2.53;;;;;;;;;;5053807;28;20473;-74
2023/10/13 13:02:55;;;;;;;11.13;3.20;;;;;;;;;;5053634;28;20505;-74
2023/10/13 13:05:28;;;;;;;8.37;2.40;;;;;;;;;;5053601;28;20421;-73
2023/10/13 13:07:57;;;;;;;9.47;2.30;;;;;;;;;;5053565;28;20421;-73
2023/10/13 13:10:34;;;;;;;7.70;2.50;;;;;;;;;;5053404;28;20498;-73
2023/10/13 13:13:02;;;;;;;4.70;2.20;;;;;;;;;;5053413;28;20470;-74
2023/10/13 13:15:30;;;;;;;7.37;2.50;;;;;;;;;;5053599;28;20436;-75
2023/10/13 13:17:58;;;;;;;6.77;3.17;;;;;;;;;;5053772;28;20433;-75
2023/10/13 13:20:29;;;;;;;7.23;2.30;;;;;;;;;;5053566;28;20477;-76
2023/10/13 13:23:02;;;;;;;5.90;1.90;;;;;;;;;;5053766;28;20504;-75
2023/10/13 13:25:32;;;;;;;8.30;3.07;;;;;;;;;;5053334;28;20915;-75
2023/10/13 13:28:05;;;;;;;8.60;1.90;;;;;;;;;;5060068;28;20999;-76
2023/10/13 13:30:35;;;;;;;4.30;2.27;;;;;;;;;;5073156;28;20430;-75
2023/10/13 13:33:10;;;;;;;6.30;2.23;;;;;;;;;;5073157;28;20506;-76
2023/10/13 13:35:38;;;;;;;7.93;2.33;;;;;;;;;;5072948;28;20828;-75
2023/10/13 13:38:16;;;;;;;8.00;2.23;;;;;;;;;;5072717;28;20468;-75
2023/10/13 13:40:48;;;;;;;9.90;2.73;;;;;;;;;;5073014;28;20471;-75
2023/10/13 13:43:31;;;;;;;6.53;2.20;;;;;;;;;;5072967;28;20442;-75
2023/10/13 13:46:02;;;;;;;6.97;2.20;;;;;;;;;;5073083;28;20427;-75
2023/10/13 13:48:32;;;;;;;6.37;2.13;;;;;;;;;;5072793;28;20463;-76
2023/10/13 13:51:06;;;;;;;5.63;2.33;;;;;;;;;;5063223;28;20469;-75
2023/10/13 13:53:37;;;;;;;10.50;2.67;;;;;;;;;;5052738;28;20413;-75
2023/10/13 13:56:07;;;;;;;4.80;2.50;;;;;;;;;;5060938;28;20428;-75
2023/10/13 13:58:38;;;;;;;10.07;2.00;;;;;;;;;;5072608;28;20424;-75
2023/10/13 14:01:12;;;;;;;10.90;2.30;;;;;;;;;;5072375;28;20529;-76
2023/10/13 14:03:45;;;;;;;5.47;1.90;;;;;;;;;;5072521;28;20428;-75
2023/10/13 14:06:17;;;;;;;8.30;3.67;;;;;;;;;;5072517;28;20428;-75
2023/10/13 14:08:48;;;;;;;9.17;2.70;;;;;;;;;;5073142;28;20836;-75
2023/10/13 14:12:25;;;;;;;4.20;2.20;;;;;;;;;;5076592;28;20427;-76
2023/10/13 14:14:11;;;;;;;6.13;2.33;;;;;;;;;;5075984;28;20459;-76
2023/10/13 14:17:03;;;;;;;8.00;3.13;;;;;;;;;;5076251;28;20443;-75
2023/10/13 14:19:30;;;;;;;8.30;2.80;;;;;;;;;;5076209;28;20850;-75
2023/10/13 14:21:58;;;;;;;8.40;3.80;;;;;;;;;;5076081;28;20960;-75
2023/10/13 14:24:28;;;;;;;11.07;2.60;;;;;;;;;;5076261;28;20443;-76
2023/10/13 14:26:58;;;;;;;5.70;2.20;;;;;;;;;;5076396;28;20911;-76
2023/10/13 14:29:27;;;;;;;5.13;2.53;;;;;;;;;;5075812;28;20447;-75
2023/10/13 14:31:54;;;;;;;6.80;2.50;;;;;;;;;;5076671;28;20497;-76
2023/10/13 14:34:21;;;;;;;4.90;1.90;;;;;;;;;;5075737;28;20509;-76
2023/10/13 14:36:51;;;;;;;7.77;2.17;;;;;;;;;;5076566;28;20433;-76
2023/10/13 14:39:20;;;;;;;6.77;2.50;;;;;;;;;;5075255;28;20432;-76
2023/10/13 14:41:48;;;;;;;9.20;3.20;;;;;;;;;;5075832;28;20970;-75
2023/10/13 14:44:16;;;;;;;10.30;3.33;;;;;;;;;;5075876;28;20764;-76
2023/10/13 14:46:46;;;;;;;6.93;2.27;;;;;;;;;;5075825;28;20432;-76
2023/10/13 14:49:18;;;;;;;8.23;2.60;;;;;;;;;;5075984;28;20467;-75
2023/10/13 14:51:46;;;;;;;8.80;2.90;;;;;;;;;;5075027;28;20456;-75
2023/10/13 14:54:14;;;;;;;12.37;6.80;;;;;;;;;;5075814;28;20942;-76
2023/10/13 14:56:42;;;;;;;12.60;7.57;;;;;;;;;;5075218;28;20973;-75
2023/10/13 14:59:16;;;;;;;9.30;4.60;;;;;;;;;;5075560;28;20467;-76
2023/10/13 15:01:46;;;;;;;21.27;3.03;;;;;;;;;;5075776;28;20469;-76
2023/10/13 15:04:13;;;;;;;5.47;2.30;;;;;;;;;;5075874;28;20438;-76
2023/10/13 15:06:41;;;;;;;11.00;4.90;;;;;;;;;;5075645;28;20432;-76
2023/10/13 15:09:11;;;;;;;9.10;3.40;;;;;;;;;;5075223;28;20432;-75
2023/10/13 15:11:40;;;;;;;9.23;2.87;;;;;;;;;;5075068;28;20432;-76
2023/10/13 15:14:07;;;;;;;8.80;2.17;;;;;;;;;;5075826;28;20436;-75
2023/10/13 15:16:35;;;;;;;7.43;2.20;;;;;;;;;;5075156;28;20458;-75
2023/10/13 15:19:04;;;;;;;6.30;2.07;;;;;;;;;;5075429;28;20436;-76
2023/10/13 15:21:34;;;;;;;8.97;2.00;;;;;;;;;;5075243;28;20897;-75
2023/10/13 15:24:03;;;;;;;8.90;2.77;;;;;;;;;;5075716;28;20443;-75
2023/10/13 15:26:33;;;;;;;12.83;3.40;;;;;;;;;;5075457;28;20429;-80
2023/10/13 15:29:01;;;;;;;7.63;2.30;;;;;;;;;;5075521;28;20527;-75
2023/10/13 15:31:37;;;;;;;5.50;3.03;;;;;;;;;;5075335;28;20498;-76
2023/10/13 15:34:12;;;;;;;11.60;3.47;;;;;;;;;;5074924;28;20425;-75
2023/10/13 15:36:40;;;;;;;13.47;3.77;;;;;;;;;;5075590;28;20428;-75
2023/10/13 15:39:10;;;;;;;7.57;2.70;;;;;;;;;;5075345;28;20480;-75
2023/10/13 15:41:40;;;;;;;8.30;2.70;;;;;;;;;;5075136;28;20472;-76
2023/10/13 15:44:09;;;;;;;6.17;3.43;;;;;;;;;;5075336;28;20439;-75
2023/10/13 15:46:37;;;;;;;8.97;2.30;;;;;;;;;;5075305;28;20464;-76
2023/10/13 15:49:06;;;;;;;13.40;4.10;;;;;;;;;;5075485;28;20468;-76
2023/10/13 15:51:36;;;;;;;14.13;5.00;;;;;;;;;;5075362;28;20441;-75
2023/10/13 15:54:10;;;;;;;12.50;4.93;;;;;;;;;;5075230;28;20441;-75
2023/10/13 15:56:41;;;;;;;10.80;5.43;;;;;;;;;;5075050;28;20512;-75
2023/10/13 15:59:08;;;;;;;11.73;4.10;;;;;;;;;;5075467;28;20482;-75
2023/10/13 16:01:35;;;;;;;12.67;3.80;;;;;;;;;;5074990;28;20860;-75
2023/10/13 16:04:10;;;;;;;15.13;4.03;;;;;;;;;;5075015;28;20443;-75
2023/10/13 16:06:39;;;;;;;22.90;5.27;;;;;;;;;;5075139;28;20428;-76
2023/10/13 16:09:13;;;;;;;9.20;3.60;;;;;;;;;;5072877;28;20436;-76
2023/10/13 16:11:42;;;;;;;6.90;2.63;;;;;;;;;;5074942;28;20427;-76
2023/10/13 16:14:15;;;;;;;9.33;3.70;;;;;;;;;;5074567;28;20436;-76
2023/10/13 16:16:46;;;;;;;9.10;3.63;;;;;;;;;;5074781;28;20885;-76
2023/10/13 16:19:14;;;;;;;7.20;3.23;;;;;;;;;;5073787;28;20842;-75
2023/10/13 16:21:43;;;;;;;8.00;3.07;;;;;;;;;;5074440;28;20479;-76
2023/10/13 16:24:11;;;;;;;9.43;3.40;;;;;;;;;;5074330;28;20466;-77
2023/10/13 16:26:40;;;;;;;5.50;2.90;;;;;;;;;;5070089;28;20486;-75
2023/10/13 16:29:08;;;;;;;6.40;3.30;;;;;;;;;;5071942;28;20451;-79
2023/10/13 16:31:35;;;;;;;8.30;3.17;;;;;;;;;;5070535;28;20439;-75
2023/10/13 16:34:05;;;;;;;7.70;4.20;;;;;;;;;;5072350;28;20494;-77
2023/10/13 16:36:32;;;;;;;14.33;3.93;;;;;;;;;;5072953;28;20441;-76
2023/10/13 16:39:01;;;;;;;9.10;3.60;;;;;;;;;;5072643;28;20444;-76
2023/10/13 16:41:28;;;;;;;15.20;4.93;;;;;;;;;;5073178;28;20484;-77
2023/10/13 16:43:55;;;;;;;7.83;4.30;;;;;;;;;;5073185;28;20425;-76
2023/10/13 16:46:23;;;;;;;8.00;4.57;;;;;;;;;;5071990;28;20503;-76
2023/10/13 16:48:50;;;;;;;8.87;3.93;;;;;;;;;;5072457;28;20464;-77
2023/10/13 16:51:18;;;;;;;9.13;4.80;;;;;;;;;;5072256;28;20428;-77
2023/10/13 16:53:49;;;;;;;12.07;8.40;;;;;;;;;;5069831;28;20455;-76
2023/10/13 16:56:18;;;;;;;12.77;6.00;;;;;;;;;;5071912;28;20444;-77
2023/10/13 16:58:45;;;;;;;10.50;4.83;;;;;;;;;;5071843;28;20502;-75
2023/10/13 17:01:13;;;;;;;16.73;5.20;;;;;;;;;;5072604;28;20566;-75
2023/10/13 17:03:40;;;;;;;9.23;4.43;;;;;;;;;;5072536;28;20490;-76
2023/10/13 17:06:09;;;;;;;8.20;5.37;;;;;;;;;;5072982;28;20455;-75
2023/10/13 17:08:37;;;;;;;11.67;6.90;;;;;;;;;;5072966;28;20436;-79
2023/10/13 17:11:11;;;;;;;14.43;8.23;;;;;;;;;;5071349;28;20523;-75
2023/10/13 17:13:41;;;;;;;11.90;8.90;;;;;;;;;;5073215;28;20519;-76
2023/10/13 17:16:12;;;;;;;11.87;7.00;;;;;;;;;;5072655;28;20830;-76
2023/10/13 17:18:40;;;;;;;17.03;7.03;;;;;;;;;;5071453;28;20424;-76
2023/10/13 17:21:15;;;;;;;9.30;5.97;;;;;;;;;;5072158;28;20471;-75